createdAt,value
2019-03-22T00:00:32.489Z,32.23
2019-03-22T00:06:37.339Z,32.15
2019-03-22T00:12:42.188Z,32.10
2019-03-22T00:18:47.052Z,33.23
2019-03-22T00:24:51.834Z,32.45
2019-03-22T00:30:56.647Z,32.33
2019-03-22T00:37:01.430Z,30.85
2019-03-22T00:43:06.314Z,33.00
2019-03-22T00:49:11.445Z,34.35
2019-03-22T00:55:16.294Z,36.70
2019-03-22T01:01:21.118Z,47.53
2019-03-22T01:07:25.948Z,46.63
2019-03-22T01:13:30.829Z,46.42
2019-03-22T01:19:35.793Z,51.73
2019-03-22T01:25:40.768Z,51.68
2019-03-22T01:31:45.591Z,50.12
2019-03-22T01:37:50.358Z,47.88
2019-03-22T01:43:55.538Z,46.83
2019-03-22T01:50:00.362Z,46.55
2019-03-22T01:56:05.292Z,45.12
2019-03-22T02:02:10.200Z,44.55
2019-03-22T02:08:15.015Z,45.45
2019-03-22T02:14:19.773Z,44.48
2019-03-22T02:20:24.740Z,45.80
2019-03-22T02:26:29.507Z,45.15
2019-03-22T02:32:34.330Z,47.85
2019-03-22T02:38:39.160Z,43.95
2019-03-22T02:44:43.923Z,44.90
2019-03-22T02:50:49.090Z,48.05
2019-03-22T02:56:53.927Z,47.85
2019-03-22T03:02:58.835Z,46.13
2019-03-22T03:09:05.065Z,48.95
2019-03-22T03:15:11.117Z,53.25
2019-03-22T03:21:16.347Z,50.95
2019-03-22T03:27:21.194Z,49.67
2019-03-22T03:33:26.105Z,49.88
2019-03-22T03:39:30.920Z,53.13
2019-03-22T03:45:37.731Z,52.95
2019-03-22T03:51:42.625Z,52.45
2019-03-22T03:57:47.491Z,49.50
2019-03-22T04:03:52.334Z,51.15
2019-03-22T04:09:57.209Z,50.33
2019-03-22T04:16:02.069Z,53.52
2019-03-22T04:22:06.915Z,51.35
2019-03-22T04:28:11.807Z,50.40
2019-03-22T04:34:16.980Z,51.33
2019-03-22T04:40:28.522Z,52.80
2019-03-22T04:46:33.637Z,52.23
2019-03-22T04:52:38.568Z,51.95
2019-03-22T04:58:46.743Z,49.93
2019-03-22T05:04:51.895Z,49.53
2019-03-22T05:10:57.935Z,46.92
2019-03-22T05:17:02.933Z,48.08
2019-03-22T05:23:08.579Z,50.52
2019-03-22T05:29:13.839Z,48.30
2019-03-22T05:35:18.708Z,46.50
2019-03-22T05:41:23.537Z,43.85
2019-03-22T05:47:28.275Z,46.68
2019-03-22T05:53:33.113Z,45.70
2019-03-22T05:59:42.929Z,46.13
2019-03-22T06:05:44.596Z,43.83
2019-03-22T06:11:49.443Z,45.95
2019-03-22T06:17:54.281Z,45.55
2019-03-22T06:23:59.110Z,43.35
2019-03-22T06:30:04.498Z,45.52
2019-03-22T06:36:12.061Z,45.40
2019-03-22T06:42:17.373Z,44.35
2019-03-22T06:48:22.308Z,46.48
2019-03-22T06:54:31.697Z,42.78
2019-03-22T07:00:33.692Z,43.10
2019-03-22T07:06:38.538Z,43.02
2019-03-22T07:12:43.321Z,44.25
2019-03-22T07:18:48.084Z,46.05
2019-03-22T07:24:52.867Z,45.05
2019-03-22T07:31:04.863Z,45.12
2019-03-22T07:37:09.838Z,45.03
2019-03-22T07:43:14.721Z,49.00
2019-03-22T07:49:19.708Z,42.17
2019-03-22T07:55:24.506Z,47.13
2019-03-22T08:01:29.262Z,46.92
2019-03-22T08:07:34.098Z,45.12
2019-03-22T08:13:38.940Z,45.48
2019-03-22T08:19:43.761Z,44.15
2019-03-22T08:25:48.536Z,45.08
2019-03-22T08:31:53.409Z,42.73
2019-03-22T08:37:58.278Z,43.25
2019-03-22T08:44:03.208Z,43.80
2019-03-22T08:50:08.229Z,38.40
2019-03-22T08:56:13.121Z,44.60
2019-03-22T09:02:18.111Z,40.73
2019-03-22T09:08:22.983Z,41.10
2019-03-22T09:14:27.855Z,47.93
2019-03-22T09:20:32.663Z,49.08
2019-03-22T09:26:47.113Z,48.38
2019-03-22T09:32:44.345Z,51.02
2019-03-22T09:38:49.241Z,49.50
2019-03-22T09:44:54.206Z,51.53
2019-03-22T09:50:59.047Z,58.68
2019-03-22T09:57:04.566Z,57.35
2019-03-22T10:03:09.544Z,45.20
2019-03-22T10:09:14.542Z,43.78
2019-03-22T10:15:19.335Z,42.90
2019-03-22T10:21:24.232Z,43.78
2019-03-22T10:27:28.995Z,43.50
2019-03-22T10:33:33.756Z,42.05
2019-03-22T10:39:38.592Z,44.48
2019-03-22T10:45:43.371Z,43.05
2019-03-22T10:51:56.752Z,42.08
2019-03-22T10:57:55.586Z,42.30
2019-03-22T11:04:00.739Z,40.05
2019-03-22T11:10:08.216Z,40.48
2019-03-22T11:16:13.009Z,42.43
2019-03-22T11:22:17.873Z,45.25
2019-03-22T11:28:23.007Z,43.00
2019-03-22T11:34:27.939Z,44.27
2019-03-22T11:40:32.769Z,39.42
2019-03-22T11:46:37.701Z,40.40
2019-03-22T11:52:42.727Z,36.48
2019-03-22T11:58:47.515Z,38.00
2019-03-22T12:04:52.369Z,33.40
2019-03-22T12:10:57.237Z,28.30
2019-03-22T12:17:01.999Z,32.10
2019-03-22T12:23:06.850Z,26.00
2019-03-22T12:29:11.971Z,31.35
2019-03-22T12:35:17.128Z,29.75
2019-03-22T12:41:21.943Z,30.35
2019-03-22T12:47:26.713Z,24.82
2019-03-22T12:53:31.842Z,25.80
2019-03-22T12:59:36.754Z,27.65
2019-03-22T13:05:41.648Z,20.90
2019-03-22T13:11:46.842Z,20.05
2019-03-22T13:17:51.718Z,24.50
2019-03-22T13:23:56.616Z,23.05
2019-03-22T13:30:01.729Z,31.17
2019-03-22T13:36:07.895Z,23.15
2019-03-22T13:42:13.120Z,22.58
2019-03-22T13:48:18.306Z,19.50
2019-03-22T13:54:23.532Z,30.95
2019-03-22T14:00:28.492Z,27.00
2019-03-22T14:06:34.031Z,31.10
2019-03-22T14:12:39.052Z,31.23
2019-03-22T14:18:43.912Z,24.92
2019-03-22T14:24:49.256Z,21.20
2019-03-22T14:30:54.229Z,17.55
2019-03-22T14:36:59.081Z,23.32
2019-03-22T14:43:03.845Z,18.48
2019-03-22T14:49:08.850Z,15.60
2019-03-22T14:55:13.715Z,24.23
2019-03-22T15:01:18.621Z,20.92
2019-03-22T15:07:23.499Z,17.27
2019-03-22T15:13:36.816Z,18.98
2019-03-22T15:20:04.651Z,17.75
2019-03-22T15:26:32.111Z,27.70
2019-03-22T15:33:01.945Z,17.70
2019-03-22T15:39:25.847Z,28.12
2019-03-22T15:45:31.081Z,34.48
2019-03-22T15:51:36.133Z,29.37
2019-03-22T15:57:40.893Z,27.25
2019-03-22T16:03:45.787Z,25.12
2019-03-22T16:09:50.723Z,24.20
2019-03-22T16:15:55.476Z,50.05
2019-03-22T16:22:00.327Z,62.25
2019-03-22T16:28:05.199Z,56.08
2019-03-22T16:34:10.044Z,55.35
2019-03-22T16:40:23.837Z,44.83
2019-03-22T16:46:23.446Z,64.62
2019-03-22T16:52:28.276Z,64.05
2019-03-22T16:58:33.065Z,77.40
2019-03-22T17:04:38.323Z,69.85
2019-03-22T17:10:43.304Z,66.90
2019-03-22T17:16:48.153Z,68.80
2019-03-22T17:22:53.009Z,53.78
2019-03-22T17:28:57.862Z,56.65
2019-03-22T17:35:03.620Z,43.85
2019-03-22T17:41:15.306Z,44.95
2019-03-22T17:47:20.213Z,50.12
2019-03-22T17:53:25.264Z,44.23
2019-03-22T17:59:30.013Z,47.35
2019-03-22T18:05:34.953Z,51.48
2019-03-22T18:11:40.071Z,51.75
2019-03-22T18:17:45.585Z,55.58
2019-03-22T18:23:50.660Z,52.65
2019-03-22T18:29:55.508Z,54.48
2019-03-22T18:36:00.400Z,53.78
2019-03-22T18:42:05.380Z,53.60
2019-03-22T18:48:10.248Z,53.42
2019-03-22T18:54:16.157Z,54.80
2019-03-22T19:00:21.188Z,54.80
2019-03-22T19:06:26.393Z,55.67
2019-03-22T19:12:31.246Z,57.05
2019-03-22T19:18:36.576Z,58.60
2019-03-22T19:24:41.624Z,58.13
2019-03-22T19:30:46.521Z,55.60
2019-03-22T19:36:51.440Z,56.83
2019-03-22T19:42:56.271Z,54.80
2019-03-22T19:49:02.445Z,56.25
2019-03-22T19:55:08.168Z,55.70
2019-03-22T20:01:12.980Z,58.20
2019-03-22T20:07:26.665Z,58.48
2019-03-22T20:13:24.401Z,59.95
2019-03-22T20:19:29.669Z,56.90
2019-03-22T20:25:34.465Z,57.98
2019-03-22T20:31:39.319Z,58.65
2019-03-22T20:37:44.105Z,56.33
2019-03-22T20:43:49.115Z,58.55
2019-03-22T20:49:54.098Z,56.98
2019-03-22T20:55:58.941Z,54.70
2019-03-22T21:02:03.722Z,50.70
2019-03-22T21:08:08.597Z,47.75
2019-03-22T21:14:13.403Z,46.65
2019-03-22T21:20:18.213Z,48.65
2019-03-22T21:26:23.296Z,60.83
2019-03-22T21:32:28.537Z,61.42
2019-03-22T21:38:33.446Z,43.00
2019-03-22T21:44:38.268Z,52.25
2019-03-22T21:50:43.124Z,58.63
2019-03-22T21:56:47.907Z,60.35
2019-03-22T22:02:52.812Z,61.88
2019-03-22T22:08:57.726Z,62.58
2019-03-22T22:15:02.626Z,66.15
2019-03-22T22:21:07.741Z,66.40
2019-03-22T22:27:13.919Z,57.23
2019-03-22T22:33:19.132Z,65.30
2019-03-22T22:39:23.978Z,71.20
2019-03-22T22:45:28.880Z,65.30
2019-03-22T22:51:33.830Z,64.70
2019-03-22T22:57:38.761Z,66.75
2019-03-22T23:03:43.623Z,67.85
2019-03-22T23:09:48.498Z,66.12
2019-03-22T23:15:53.478Z,65.25
2019-03-22T23:21:58.455Z,63.15
2019-03-22T23:28:03.410Z,63.65
2019-03-22T23:34:08.385Z,60.08
2019-03-22T23:40:13.733Z,61.58
2019-03-22T23:46:18.506Z,60.38
2019-03-22T23:52:23.484Z,59.38
2019-03-22T23:58:28.587Z,58.75
